Time;durP1;ratioP1;P1;durP2;ratioP2;P2;SDS_P1;SDS_P2;PMS_P1;PMS_P2;Temp;Humidity;BMP_temperature;BMP_pressure;BME280_temperature;BME280_humidity;BME280_pressure;Samples;Min_cycle;Max_cycle;Signal;HPM_P1;HPM_P2
2022/11/13 00:01:15;;;;;;;26.27;18.88;;;6.00;99.90;;;;;;4933327;29;20055;-68
2022/11/13 00:03:41;;;;;;;27.23;18.55;;;6.00;99.90;;;;;;4934323;28;20146;-69
2022/11/13 00:06:07;;;;;;;30.00;18.50;;;5.90;99.90;;;;;;4939317;28;20043;-70
2022/11/13 00:08:33;;;;;;;26.83;19.25;;;6.00;99.90;;;;;;4935295;29;20051;-67
2022/11/13 00:11:04;;;;;;;31.05;21.38;;;5.90;99.90;;;;;;4940718;29;20922;-70
2022/11/13 00:13:30;;;;;;;29.73;20.50;;;5.90;99.90;;;;;;4934024;29;20100;-69
2022/11/13 00:16:04;;;;;;;26.48;20.05;;;5.90;99.90;;;;;;4938968;29;20051;-71
2022/11/13 00:18:34;;;;;;;29.52;19.65;;;5.90;99.90;;;;;;4939549;29;20102;-68
2022/11/13 00:21:08;;;;;;;27.90;20.33;;;5.80;99.90;;;;;;4933654;29;20486;-68
2022/11/13 00:23:35;;;;;;;28.77;20.85;;;5.80;99.90;;;;;;4918831;29;20047;-68
2022/11/13 00:26:06;;;;;;;27.88;20.73;;;5.80;99.90;;;;;;4933081;28;20046;-71
2022/11/13 00:28:32;;;;;;;29.48;21.13;;;5.90;99.90;;;;;;4934584;29;20134;-70
2022/11/13 00:31:00;;;;;;;32.47;22.23;;;5.80;99.90;;;;;;4940209;29;20138;-67
2022/11/13 00:33:26;;;;;;;31.75;22.42;;;5.90;99.90;;;;;;4934877;29;20047;-70
2022/11/13 00:35:52;;;;;;;26.15;20.65;;;5.90;99.90;;;;;;4934867;29;20130;-70
2022/11/13 00:38:18;;;;;;;31.33;21.40;;;5.90;99.90;;;;;;4939072;29;20059;-70
2022/11/13 00:40:44;;;;;;;33.80;21.50;;;6.00;99.90;;;;;;4933774;28;20063;-70
2022/11/13 00:43:09;;;;;;;33.50;23.45;;;6.00;99.90;;;;;;4933122;29;20082;-70
2022/11/13 00:45:35;;;;;;;35.33;23.38;;;6.00;99.90;;;;;;4916740;29;20412;-70
2022/11/13 00:48:01;;;;;;;35.03;25.30;;;6.10;99.90;;;;;;4933779;29;20052;-67
2022/11/13 00:50:27;;;;;;;36.08;24.52;;;6.10;99.90;;;;;;4922267;29;20517;-70
2022/11/13 00:52:53;;;;;;;38.00;24.38;;;6.20;99.90;;;;;;4939259;29;20810;-70
2022/11/13 00:55:18;;;;;;;38.38;25.35;;;6.20;99.90;;;;;;4916755;29;20160;-70
2022/11/13 00:57:44;;;;;;;37.10;25.15;;;6.20;99.90;;;;;;4933245;29;20039;-71
2022/11/13 01:00:10;;;;;;;120.00;86.82;;;6.30;99.90;;;;;;4933534;29;20051;-70
2022/11/13 01:02:36;;;;;;;49.05;36.78;;;6.30;99.90;;;;;;4917709;29;20051;-68
2022/11/13 01:05:02;;;;;;;34.40;24.27;;;6.40;99.90;;;;;;4898456;29;20059;-69
2022/11/13 01:07:28;;;;;;;35.95;24.40;;;6.40;99.90;;;;;;4916947;29;20043;-71
2022/11/13 01:09:54;;;;;;;33.45;23.88;;;6.50;99.90;;;;;;4915196;29;20082;-67
2022/11/13 01:12:20;;;;;;;35.80;23.60;;;6.50;99.90;;;;;;4935368;29;20176;-70
2022/11/13 01:14:46;;;;;;;31.10;22.58;;;6.50;99.90;;;;;;4916791;29;20356;-69
2022/11/13 01:17:11;;;;;;;33.20;22.95;;;6.60;99.90;;;;;;4927929;29;20066;-70
2022/11/13 01:19:37;;;;;;;33.17;22.60;;;6.60;99.90;;;;;;4898433;29;20113;-70
2022/11/13 01:22:03;;;;;;;29.85;22.05;;;6.60;99.90;;;;;;4899077;29;20051;-70
2022/11/13 01:24:30;;;;;;;33.35;21.98;;;6.70;99.90;;;;;;4888380;29;20053;-71
2022/11/13 01:26:56;;;;;;;30.20;22.67;;;6.70;99.90;;;;;;4896864;29;20062;-70
2022/11/13 01:29:21;;;;;;;33.20;22.52;;;6.70;99.90;;;;;;4904243;29;20055;-70
2022/11/13 01:31:47;;;;;;;31.45;22.85;;;6.80;99.90;;;;;;4897112;29;20107;-68
2022/11/13 01:34:13;;;;;;;28.77;22.30;;;6.80;99.90;;;;;;4898274;29;20510;-70
2022/11/13 01:36:39;;;;;;;31.33;23.55;;;6.80;99.90;;;;;;4888059;29;20087;-71
2022/11/13 01:39:04;;;;;;;35.15;23.40;;;6.90;99.90;;;;;;4898222;29;20055;-69
2022/11/13 01:41:33;;;;;;;33.15;23.83;;;7.00;99.90;;;;;;4886115;29;20044;-70
2022/11/13 01:43:59;;;;;;;34.30;24.80;;;7.00;99.90;;;;;;4897703;29;20071;-70
2022/11/13 01:46:27;;;;;;;38.78;26.55;;;7.00;99.90;;;;;;4913418;29;20541;-70
2022/11/13 01:49:01;;;;;;;34.92;25.70;;;7.10;99.90;;;;;;4911815;29;20047;-70
2022/11/13 01:51:30;;;;;;;35.97;26.15;;;7.10;99.90;;;;;;4897301;29;20079;-71
2022/11/13 01:53:57;;;;;;;34.50;25.67;;;7.10;99.90;;;;;;4903566;29;20565;-72
2022/11/13 01:56:24;;;;;;;36.20;24.58;;;7.20;99.90;;;;;;4896773;29;20056;-69
2022/11/13 01:59:02;;;;;;;39.75;24.80;;;7.20;99.90;;;;;;4904188;29;20048;-70
2022/11/13 02:01:27;;;;;;;36.83;25.52;;;7.20;99.90;;;;;;4902562;29;20047;-71
2022/11/13 02:03:53;;;;;;;35.40;24.17;;;7.20;99.90;;;;;;4882892;29;20510;-69
2022/11/13 02:06:20;;;;;;;32.58;23.27;;;7.30;99.90;;;;;;4881919;29;20099;-70
2022/11/13 02:08:48;;;;;;;31.50;23.15;;;7.30;99.90;;;;;;4881100;29;21048;-70
2022/11/13 02:11:13;;;;;;;31.67;22.45;;;7.30;99.90;;;;;;4901773;29;20059;-69
2022/11/13 02:13:40;;;;;;;29.90;21.63;;;7.30;99.90;;;;;;4903759;29;20074;-71
2022/11/13 02:16:08;;;;;;;30.75;20.88;;;7.30;99.90;;;;;;4882876;29;20051;-71
2022/11/13 02:18:36;;;;;;;28.50;20.17;;;7.30;99.90;;;;;;4908384;29;20125;-71
2022/11/13 02:21:16;;;;;;;27.90;19.95;;;7.30;99.90;;;;;;4937670;28;20126;-68
2022/11/13 02:23:56;;;;;;;31.23;19.25;;;7.30;99.90;;;;;;4931201;29;20076;-70
2022/11/13 02:26:24;;;;;;;25.95;19.23;;;7.30;99.90;;;;;;4931792;29;20070;-68
2022/11/13 02:28:49;;;;;;;25.17;19.30;;;7.20;99.90;;;;;;4931758;29;20386;-70
2022/11/13 02:31:15;;;;;;;25.25;18.48;;;7.20;99.90;;;;;;4930656;28;20051;-70
2022/11/13 02:33:41;;;;;;;25.75;18.13;;;7.20;99.90;;;;;;4906526;29;20778;-71
2022/11/13 02:36:09;;;;;;;26.52;18.73;;;7.20;99.90;;;;;;4915185;29;21070;-71
2022/11/13 02:38:37;;;;;;;27.83;18.38;;;7.20;99.90;;;;;;4931933;29;20079;-71
2022/11/13 02:41:03;;;;;;;25.63;17.63;;;7.20;99.90;;;;;;4931477;29;20044;-69
2022/11/13 02:43:29;;;;;;;26.27;18.40;;;7.20;99.90;;;;;;4902254;29;20044;-69
2022/11/13 02:45:54;;;;;;;26.08;18.88;;;7.20;99.90;;;;;;4933222;28;20043;-71
2022/11/13 02:48:20;;;;;;;23.40;18.65;;;7.20;99.90;;;;;;4913042;29;20480;-70
2022/11/13 02:50:46;;;;;;;25.55;18.23;;;7.20;99.90;;;;;;4947347;28;20058;-69
2022/11/13 02:53:12;;;;;;;25.13;18.58;;;7.10;99.90;;;;;;4931988;28;20098;-67
2022/11/13 02:55:38;;;;;;;28.83;19.08;;;7.20;99.90;;;;;;4928447;29;20141;-71
2022/11/13 02:58:04;;;;;;;25.70;18.88;;;7.10;99.90;;;;;;4930655;28;20058;-71
2022/11/13 03:00:30;;;;;;;23.65;18.83;;;7.10;99.90;;;;;;4929131;29;20055;-68
2022/11/13 03:02:56;;;;;;;29.33;19.38;;;7.10;99.90;;;;;;4934664;29;20055;-71
2022/11/13 03:05:22;;;;;;;27.33;19.65;;;7.00;99.90;;;;;;4934501;28;20058;-69
2022/11/13 03:07:48;;;;;;;27.92;18.67;;;7.00;99.90;;;;;;4928477;29;21729;-67
2022/11/13 03:10:13;;;;;;;23.75;18.52;;;6.90;99.90;;;;;;4928200;29;20061;-71
2022/11/13 03:12:39;;;;;;;24.02;18.52;;;6.90;99.90;;;;;;4930429;29;20138;-71
2022/11/13 03:15:07;;;;;;;26.13;18.33;;;6.90;99.90;;;;;;4931959;28;20044;-69
2022/11/13 03:17:33;;;;;;;25.67;19.13;;;6.90;99.90;;;;;;4928168;29;20063;-67
2022/11/13 03:20:00;;;;;;;23.50;18.08;;;6.80;99.90;;;;;;4929593;29;20113;-69
2022/11/13 03:22:26;;;;;;;27.50;18.65;;;6.80;99.90;;;;;;4943394;28;20092;-69
2022/11/13 03:24:52;;;;;;;24.85;18.83;;;6.80;99.90;;;;;;4929994;28;20043;-70
2022/11/13 03:27:18;;;;;;;27.83;19.50;;;6.70;99.90;;;;;;4925972;28;20043;-69
2022/11/13 03:29:44;;;;;;;27.48;18.88;;;6.70;99.90;;;;;;4929210;29;20054;-69
2022/11/13 03:32:10;;;;;;;26.70;18.98;;;6.70;99.90;;;;;;4930392;29;20043;-71
2022/11/13 03:34:37;;;;;;;28.90;19.40;;;6.70;99.90;;;;;;4913413;29;20048;-69
2022/11/13 03:37:03;;;;;;;23.95;18.55;;;6.70;99.90;;;;;;4929545;29;20055;-71
2022/11/13 03:39:29;;;;;;;26.63;20.15;;;6.70;99.90;;;;;;4931064;29;20052;-69
2022/11/13 03:41:54;;;;;;;25.75;18.95;;;6.70;99.90;;;;;;4930245;28;20246;-69
2022/11/13 03:44:20;;;;;;;24.27;18.30;;;6.70;99.90;;;;;;4931240;29;20509;-70
2022/11/13 03:46:46;;;;;;;26.25;19.75;;;6.70;99.90;;;;;;4902498;29;20066;-68
2022/11/13 03:49:12;;;;;;;24.20;19.17;;;6.70;99.90;;;;;;4920005;29;20047;-70
2022/11/13 03:51:37;;;;;;;23.05;17.88;;;6.70;99.90;;;;;;4929133;28;20051;-70
2022/11/13 03:54:03;;;;;;;24.45;18.92;;;6.70;99.90;;;;;;4913886;29;20059;-69
2022/11/13 03:56:29;;;;;;;26.33;19.92;;;6.70;99.90;;;;;;4932040;29;20186;-69
2022/11/13 03:58:55;;;;;;;27.60;18.95;;;6.70;99.90;;;;;;4929111;28;20537;-69
2022/11/13 04:01:21;;;;;;;28.77;19.35;;;6.80;99.90;;;;;;4929589;29;20043;-68
2022/11/13 04:03:46;;;;;;;27.02;19.02;;;6.80;99.90;;;;;;4905132;29;20055;-71
2022/11/13 04:06:13;;;;;;;26.42;18.88;;;6.80;99.90;;;;;;4930348;29;20055;-69
2022/11/13 04:08:39;;;;;;;28.45;19.52;;;6.80;99.90;;;;;;4912883;29;20058;-69
2022/11/13 04:11:10;;;;;;;26.00;19.58;;;6.80;99.90;;;;;;4946159;28;20487;-71
2022/11/13 04:13:35;;;;;;;23.92;18.02;;;6.90;99.90;;;;;;4930112;28;20122;-70
2022/11/13 04:16:02;;;;;;;24.60;18.85;;;6.90;99.90;;;;;;4929069;29;20122;-70
2022/11/13 04:18:28;;;;;;;22.15;17.70;;;6.90;99.90;;;;;;4929761;29;20060;-68
2022/11/13 04:21:02;;;;;;;23.05;17.90;;;6.90;99.90;;;;;;4919904;29;20054;-71
2022/11/13 04:23:28;;;;;;;25.48;18.98;;;6.90;99.90;;;;;;4931025;29;20051;-70
2022/11/13 04:25:54;;;;;;;24.63;18.75;;;6.90;99.90;;;;;;4945702;28;20068;-71
2022/11/13 04:28:19;;;;;;;25.23;17.55;;;6.90;99.90;;;;;;4930448;29;20156;-70
2022/11/13 04:30:45;;;;;;;25.25;18.00;;;6.90;99.90;;;;;;4930590;28;20162;-71
2022/11/13 04:33:11;;;;;;;24.90;18.58;;;6.90;99.90;;;;;;4935607;29;20047;-67
2022/11/13 04:35:37;;;;;;;24.45;18.77;;;6.90;99.90;;;;;;4936623;29;20060;-70
2022/11/13 04:38:03;;;;;;;25.67;17.48;;;6.90;99.90;;;;;;4930382;29;20126;-70
2022/11/13 04:40:29;;;;;;;23.85;18.48;;;6.90;99.90;;;;;;4936581;29;20467;-70
2022/11/13 04:42:55;;;;;;;23.90;16.98;;;7.00;99.90;;;;;;4927846;29;20089;-70
2022/11/13 04:45:23;;;;;;;25.48;17.55;;;7.00;99.90;;;;;;4914242;29;20079;-70
2022/11/13 04:47:50;;;;;;;23.27;18.30;;;7.00;99.90;;;;;;4902051;29;20059;-71
2022/11/13 04:50:16;;;;;;;22.33;17.85;;;6.90;99.90;;;;;;4934484;28;20548;-71
2022/11/13 04:52:42;;;;;;;23.20;17.35;;;7.00;99.90;;;;;;4934573;28;20043;-70
2022/11/13 04:55:10;;;;;;;22.35;16.42;;;7.00;99.90;;;;;;4931242;29;20055;-69
2022/11/13 04:57:36;;;;;;;27.35;17.52;;;7.00;99.90;;;;;;4922412;29;20047;-70
2022/11/13 05:00:04;;;;;;;23.83;16.98;;;7.00;99.90;;;;;;4932201;29;20053;-70
2022/11/13 05:02:30;;;;;;;20.58;17.23;;;7.00;99.90;;;;;;4929501;29;20043;-70
2022/11/13 05:04:56;;;;;;;23.52;16.10;;;7.00;99.90;;;;;;4933189;29;20085;-70
2022/11/13 05:07:22;;;;;;;23.65;16.48;;;7.00;99.90;;;;;;4932038;29;20046;-71
2022/11/13 05:09:48;;;;;;;20.15;15.63;;;7.00;99.90;;;;;;4931741;29;20134;-70
2022/11/13 05:12:14;;;;;;;21.55;16.38;;;7.10;99.90;;;;;;4933508;29;20435;-71
2022/11/13 05:14:40;;;;;;;19.75;15.25;;;7.10;99.90;;;;;;4938114;28;20166;-70
2022/11/13 05:17:08;;;;;;;23.42;16.65;;;7.10;99.90;;;;;;4929099;28;20450;-70
2022/11/13 05:19:34;;;;;;;24.67;16.70;;;7.10;99.90;;;;;;4887637;29;20242;-70
2022/11/13 05:22:00;;;;;;;19.88;15.70;;;7.00;99.90;;;;;;4882194;29;20048;-70
2022/11/13 05:24:26;;;;;;;24.23;16.92;;;7.00;99.90;;;;;;4896671;29;20048;-68
2022/11/13 05:26:52;;;;;;;25.75;16.75;;;7.00;99.90;;;;;;4903171;29;20107;-67
2022/11/13 05:29:18;;;;;;;21.77;16.63;;;7.00;99.90;;;;;;4912853;29;20542;-70
2022/11/13 05:31:43;;;;;;;22.30;16.17;;;7.00;99.90;;;;;;4883216;29;20052;-68
2022/11/13 05:34:09;;;;;;;21.88;17.23;;;6.90;99.90;;;;;;4896845;29;20058;-70
2022/11/13 05:36:35;;;;;;;25.08;17.00;;;7.00;99.90;;;;;;4899052;29;20048;-67
2022/11/13 05:39:01;;;;;;;22.40;16.65;;;6.90;99.90;;;;;;4887661;29;20067;-69
2022/11/13 05:41:28;;;;;;;23.55;17.48;;;7.00;99.90;;;;;;4904560;29;20763;-71
2022/11/13 05:43:53;;;;;;;22.40;16.05;;;6.80;99.90;;;;;;4912930;29;20062;-67
2022/11/13 05:46:22;;;;;;;22.15;15.63;;;6.80;99.90;;;;;;4897203;29;20048;-69
2022/11/13 05:48:52;;;;;;;21.27;16.27;;;6.80;99.90;;;;;;4880839;29;20067;-68
2022/11/13 05:51:21;;;;;;;18.70;15.32;;;6.80;99.90;;;;;;4898014;29;20058;-68
2022/11/13 05:53:48;;;;;;;23.02;16.58;;;6.80;99.90;;;;;;4896225;29;20059;-68
2022/11/13 05:56:20;;;;;;;23.38;16.85;;;6.80;99.90;;;;;;4903783;29;20951;-70
2022/11/13 05:58:47;;;;;;;20.73;16.70;;;6.70;99.90;;;;;;4896352;29;20059;-67
2022/11/13 06:01:28;;;;;;;23.52;16.45;;;6.70;99.90;;;;;;4903953;29;20115;-68
2022/11/13 06:03:55;;;;;;;19.30;15.73;;;6.60;99.90;;;;;;4888028;29;20786;-70
2022/11/13 06:06:23;;;;;;;21.10;16.90;;;6.60;99.90;;;;;;4911635;29;20084;-70
2022/11/13 06:08:50;;;;;;;22.38;17.05;;;6.60;99.90;;;;;;4898312;29;20063;-70
2022/11/13 06:11:20;;;;;;;22.98;16.83;;;6.60;99.90;;;;;;4913593;29;20063;-69
2022/11/13 06:13:46;;;;;;;24.85;16.65;;;6.50;99.90;;;;;;4902595;29;20079;-70
2022/11/13 06:16:33;;;;;;;22.83;16.63;;;6.50;99.90;;;;;;4897430;29;20105;-70
2022/11/13 06:19:01;;;;;;;19.45;15.68;;;6.50;99.90;;;;;;4930482;29;20102;-69
2022/11/13 06:21:29;;;;;;;22.77;16.65;;;6.50;99.90;;;;;;4929855;28;20047;-66
2022/11/13 06:23:59;;;;;;;21.55;15.95;;;6.40;99.90;;;;;;4938267;29;20055;-70
2022/11/13 06:26:28;;;;;;;27.67;16.92;;;6.40;99.90;;;;;;4914915;29;20050;-70
2022/11/13 06:28:54;;;;;;;27.50;16.55;;;6.40;99.90;;;;;;4928731;28;20070;-67
2022/11/13 06:31:22;;;;;;;21.83;15.85;;;6.30;99.90;;;;;;4935555;29;20048;-71
2022/11/13 06:33:48;;;;;;;21.23;17.08;;;6.30;99.90;;;;;;4931616;28;20062;-71
2022/11/13 06:36:23;;;;;;;21.42;15.35;;;6.20;99.90;;;;;;4930698;28;20055;-71
2022/11/13 06:38:49;;;;;;;22.65;16.58;;;6.20;99.90;;;;;;4930978;28;20043;-67
2022/11/13 06:41:17;;;;;;;21.55;15.52;;;6.20;99.90;;;;;;4935863;28;20138;-70
2022/11/13 06:43:44;;;;;;;17.77;14.48;;;6.20;99.90;;;;;;4930488;29;20126;-70
2022/11/13 06:46:19;;;;;;;19.80;15.40;;;6.20;99.90;;;;;;4930264;29;20110;-70
2022/11/13 06:48:45;;;;;;;24.38;15.95;;;6.10;99.90;;;;;;4930122;29;20047;-71
2022/11/13 06:51:14;;;;;;;21.13;14.82;;;6.00;99.90;;;;;;4928740;29;20054;-69
2022/11/13 06:53:40;;;;;;;22.23;15.57;;;6.00;99.90;;;;;;4936538;29;20051;-73
2022/11/13 06:56:07;;;;;;;20.13;15.63;;;6.00;99.90;;;;;;4914794;29;20061;-72
2022/11/13 06:58:32;;;;;;;20.52;15.68;;;5.90;99.90;;;;;;4944568;28;20043;-71
2022/11/13 07:01:11;;;;;;;21.05;15.32;;;5.90;99.90;;;;;;4930684;29;20129;-68
2022/11/13 07:03:37;;;;;;;20.42;16.65;;;5.90;99.90;;;;;;4929391;29;20139;-69
2022/11/13 07:06:05;;;;;;;19.30;15.43;;;5.80;99.90;;;;;;4937478;28;20525;-71
2022/11/13 07:08:31;;;;;;;24.30;15.90;;;5.80;99.90;;;;;;4930633;28;20190;-71
2022/11/13 07:10:57;;;;;;;19.85;15.38;;;5.80;99.90;;;;;;4925176;29;20048;-69
2022/11/13 07:13:24;;;;;;;23.27;15.98;;;5.70;99.90;;;;;;4930754;29;20056;-70
2022/11/13 07:15:50;;;;;;;22.45;16.05;;;5.80;99.90;;;;;;4930532;29;20063;-71
2022/11/13 07:18:16;;;;;;;22.88;15.95;;;5.80;99.90;;;;;;4914458;29;20621;-71
2022/11/13 07:20:42;;;;;;;23.13;15.93;;;5.70;99.90;;;;;;4930021;29;20231;-70
2022/11/13 07:23:09;;;;;;;19.80;15.43;;;5.80;99.90;;;;;;4905459;29;20058;-70
2022/11/13 07:25:35;;;;;;;22.90;14.80;;;5.70;99.90;;;;;;4929424;29;20048;-70
2022/11/13 07:28:01;;;;;;;22.10;15.35;;;5.80;99.90;;;;;;4930187;29;20068;-68
2022/11/13 07:30:26;;;;;;;21.88;16.17;;;5.70;99.90;;;;;;4936642;29;20056;-71
2022/11/13 07:32:52;;;;;;;19.90;15.38;;;5.80;99.90;;;;;;4929511;29;20051;-71
2022/11/13 07:35:19;;;;;;;21.05;16.00;;;5.80;99.90;;;;;;4930725;28;20426;-70
2022/11/13 07:37:45;;;;;;;25.27;16.48;;;5.80;99.90;;;;;;4930429;29;20469;-70
2022/11/13 07:40:11;;;;;;;22.05;16.20;;;5.80;99.90;;;;;;4926761;29;20047;-67
2022/11/13 07:42:40;;;;;;;25.25;16.33;;;5.80;99.90;;;;;;4928935;28;20098;-67
2022/11/13 07:45:06;;;;;;;24.05;16.33;;;5.70;99.90;;;;;;4928209;29;20047;-66
2022/11/13 07:47:32;;;;;;;20.08;16.25;;;5.90;99.90;;;;;;4913175;29;20051;-71
2022/11/13 07:49:57;;;;;;;21.95;15.32;;;5.90;99.90;;;;;;4926542;29;20039;-71
2022/11/13 07:52:23;;;;;;;21.63;16.52;;;5.90;99.90;;;;;;4893814;29;20038;-71
2022/11/13 07:54:49;;;;;;;20.45;15.60;;;5.90;99.90;;;;;;4914035;29;20043;-66
2022/11/13 07:57:15;;;;;;;21.60;15.60;;;5.90;99.90;;;;;;4929911;28;20055;-66
2022/11/13 07:59:40;;;;;;;19.90;15.13;;;6.00;99.90;;;;;;4927934;29;20044;-67
2022/11/13 08:02:13;;;;;;;20.80;15.38;;;6.00;99.90;;;;;;4929659;29;20498;-67
2022/11/13 08:04:38;;;;;;;18.98;15.13;;;6.10;99.90;;;;;;4912133;29;20058;-67
2022/11/13 08:07:04;;;;;;;19.90;15.38;;;6.10;99.90;;;;;;4918072;29;20051;-66
2022/11/13 08:09:30;;;;;;;24.65;15.65;;;6.20;99.90;;;;;;4927863;28;20058;-66
2022/11/13 08:11:56;;;;;;;22.27;15.48;;;6.20;99.90;;;;;;4929755;29;20126;-67
2022/11/13 08:14:21;;;;;;;20.83;15.55;;;6.30;99.90;;;;;;4909590;28;20533;-66
2022/11/13 08:16:47;;;;;;;23.75;16.35;;;6.30;99.90;;;;;;4923491;28;20051;-66
2022/11/13 08:19:13;;;;;;;18.95;14.45;;;6.40;99.90;;;;;;4896296;29;20056;-67
2022/11/13 08:21:39;;;;;;;22.90;15.52;;;6.50;99.90;;;;;;4900277;29;20075;-67
2022/11/13 08:24:05;;;;;;;20.33;15.38;;;6.50;99.90;;;;;;4881256;29;20082;-68
2022/11/13 08:26:31;;;;;;;20.80;15.70;;;6.50;99.90;;;;;;4914566;29;20064;-67
2022/11/13 08:28:56;;;;;;;17.67;14.90;;;6.60;99.90;;;;;;4896868;29;20567;-67
2022/11/13 08:31:22;;;;;;;20.23;15.45;;;6.70;99.90;;;;;;4900123;29;20064;-67
2022/11/13 08:33:48;;;;;;;20.25;14.32;;;6.80;99.90;;;;;;4884987;29;20059;-67
2022/11/13 08:36:14;;;;;;;19.23;14.88;;;6.80;99.90;;;;;;4898908;29;20054;-67
2022/11/13 08:38:39;;;;;;;20.67;14.63;;;6.90;99.90;;;;;;4909616;29;20055;-67
2022/11/13 08:41:06;;;;;;;19.33;15.02;;;7.00;99.90;;;;;;4908225;29;20048;-67
2022/11/13 08:43:32;;;;;;;19.73;15.02;;;7.10;99.90;;;;;;4899356;29;20040;-66
2022/11/13 08:45:58;;;;;;;20.55;14.48;;;7.20;99.90;;;;;;4878623;29;20048;-66
2022/11/13 08:48:23;;;;;;;19.98;14.85;;;7.30;99.90;;;;;;4899449;29;20122;-66
2022/11/13 08:50:54;;;;;;;18.27;14.43;;;7.30;99.90;;;;;;4883890;29;20083;-66
2022/11/13 08:53:21;;;;;;;19.48;13.95;;;7.50;99.90;;;;;;4916270;29;20055;-67
2022/11/13 08:55:47;;;;;;;19.83;14.85;;;7.60;99.90;;;;;;4902570;29;20044;-66
2022/11/13 08:58:13;;;;;;;17.90;13.60;;;7.70;99.90;;;;;;4913314;29;20095;-66
2022/11/13 09:00:38;;;;;;;19.25;14.30;;;7.90;99.90;;;;;;4909015;29;20050;-66
2022/11/13 09:03:04;;;;;;;18.15;13.80;;;7.90;99.90;;;;;;4901036;29;20157;-66
2022/11/13 09:05:30;;;;;;;17.92;13.30;;;8.00;99.90;;;;;;4900674;29;20047;-66
2022/11/13 09:07:59;;;;;;;16.73;14.00;;;8.20;99.90;;;;;;4907928;29;20451;-67
2022/11/13 09:10:26;;;;;;;17.67;13.85;;;8.20;99.90;;;;;;4907402;29;20111;-66
2022/11/13 09:13:00;;;;;;;18.08;13.07;;;8.40;99.90;;;;;;4894128;29;20059;-67
2022/11/13 09:15:27;;;;;;;19.00;13.55;;;8.60;99.90;;;;;;4893703;29;20195;-67
2022/11/13 09:18:01;;;;;;;17.02;13.90;;;8.70;99.90;;;;;;4902308;28;20140;-67
2022/11/13 09:20:32;;;;;;;16.00;13.40;;;8.80;99.90;;;;;;4926995;28;20055;-67
2022/11/13 09:23:04;;;;;;;16.65;12.52;;;8.90;99.90;;;;;;4930528;28;20051;-67
2022/11/13 09:25:32;;;;;;;19.52;13.38;;;9.10;99.90;;;;;;4931441;28;20085;-67
2022/11/13 09:28:00;;;;;;;19.02;12.98;;;9.20;99.90;;;;;;4936406;28;20047;-67
2022/11/13 09:30:27;;;;;;;17.27;12.45;;;9.30;99.90;;;;;;4933146;28;20057;-66
2022/11/13 09:32:56;;;;;;;16.23;11.90;;;9.40;99.90;;;;;;4910621;28;20130;-66
2022/11/13 09:35:33;;;;;;;13.45;11.90;;;9.50;99.90;;;;;;4931764;28;20052;-66
2022/11/13 09:38:01;;;;;;;16.88;12.13;;;9.60;99.90;;;;;;4925942;28;20121;-66
2022/11/13 09:40:37;;;;;;;20.17;12.15;;;9.70;99.90;;;;;;4935899;28;20255;-66
2022/11/13 09:43:06;;;;;;;15.48;12.32;;;9.80;99.90;;;;;;4933209;29;20054;-66
2022/11/13 09:45:33;;;;;;;16.42;12.18;;;10.00;99.90;;;;;;4942661;29;20070;-67
2022/11/13 09:48:11;;;;;;;16.10;12.77;;;10.10;99.90;;;;;;4931783;28;20076;-66
2022/11/13 09:50:39;;;;;;;15.63;11.48;;;10.20;99.90;;;;;;4894576;28;20074;-66
2022/11/13 09:53:05;;;;;;;17.75;12.43;;;10.40;99.90;;;;;;4918921;29;20055;-67
2022/11/13 09:55:37;;;;;;;15.35;11.30;;;10.50;99.90;;;;;;4927110;28;20051;-67
2022/11/13 09:58:22;;;;;;;13.55;11.38;;;10.60;99.90;;;;;;4941237;28;20109;-67
2022/11/13 10:00:48;;;;;;;16.40;10.07;;;10.80;99.90;;;;;;4925851;28;20058;-67
2022/11/13 10:03:27;;;;;;;12.73;10.15;;;10.90;99.90;;;;;;4924652;28;20106;-67
2022/11/13 10:06:14;;;;;;;13.73;11.40;;;11.00;99.90;;;;;;4908562;28;20055;-67
2022/11/13 10:08:54;;;;;;;15.10;10.32;;;11.20;99.90;;;;;;4910591;28;20383;-67
2022/11/13 10:11:44;;;;;;;14.57;11.32;;;11.40;99.90;;;;;;4936790;28;20098;-66
2022/11/13 10:14:22;;;;;;;16.20;12.10;;;11.50;99.90;;;;;;4926166;28;20056;-67
2022/11/13 10:16:56;;;;;;;14.48;11.52;;;11.60;99.90;;;;;;4932225;28;20052;-66
2022/11/13 10:19:41;;;;;;;15.50;11.73;;;11.70;99.90;;;;;;4926792;28;20142;-67
2022/11/13 10:22:35;;;;;;;15.38;11.57;;;11.90;99.90;;;;;;4926801;28;20414;-67
2022/11/13 10:25:13;;;;;;;14.60;11.15;;;12.00;99.90;;;;;;4926551;28;20091;-67
2022/11/13 10:27:39;;;;;;;12.50;10.40;;;12.00;99.90;;;;;;4926496;28;20051;-66
2022/11/13 10:30:16;;;;;;;13.82;10.55;;;12.10;99.90;;;;;;4927423;28;20048;-67
2022/11/13 10:32:43;;;;;;;14.05;10.68;;;12.10;99.90;;;;;;4945924;28;20383;-68
2022/11/13 10:35:36;;;;;;;15.15;11.10;;;12.20;99.90;;;;;;4930735;28;20055;-67
2022/11/13 10:38:12;;;;;;;14.93;10.82;;;12.30;99.90;;;;;;4927202;28;20425;-67
2022/11/13 10:40:39;;;;;;;13.45;10.30;;;12.50;99.90;;;;;;4929614;28;20094;-66
2022/11/13 10:43:12;;;;;;;13.98;10.45;;;12.60;99.90;;;;;;4928885;28;20050;-67
2022/11/13 10:45:39;;;;;;;;;;;12.60;99.90;;;;;;4930550;28;20047;-67
2022/11/13 10:48:05;;;;;;;13.00;9.48;;;12.70;99.90;;;;;;4932306;28;19925;-67
2022/11/13 10:50:32;;;;;;;11.00;9.77;;;12.90;99.90;;;;;;4940997;29;20067;-67
2022/11/13 10:52:58;;;;;;;13.90;9.75;;;13.00;99.90;;;;;;4941239;29;20126;-68
2022/11/13 10:55:45;;;;;;;11.20;9.20;;;13.10;99.90;;;;;;4924245;29;20871;-66
2022/11/13 10:58:16;;;;;;;11.82;9.60;;;13.20;99.90;;;;;;4930279;28;20497;-66
2022/11/13 11:00:46;;;;;;;11.55;8.93;;;13.20;99.90;;;;;;4927761;28;20396;-67
2022/11/13 11:03:23;;;;;;;14.20;9.80;;;13.20;99.90;;;;;;4931222;28;20101;-67
2022/11/13 11:06:00;;;;;;;11.68;9.35;;;13.20;99.90;;;;;;4926663;28;20158;-66
2022/11/13 11:08:36;;;;;;;10.73;9.38;;;13.20;99.90;;;;;;4926303;28;20059;-66
2022/11/13 11:13:50;;;;;;;13.32;8.95;;;13.10;99.90;;;;;;4931069;28;20058;-67
2022/11/13 11:16:20;;;;;;;13.02;10.15;;;13.00;99.90;;;;;;4912247;29;20054;-66
2022/11/13 11:19:00;;;;;;;12.38;10.23;;;13.00;99.90;;;;;;4932547;29;20079;-67
2022/11/13 11:21:30;;;;;;;12.50;9.98;;;13.00;99.90;;;;;;4928230;28;20230;-67
2022/11/13 11:24:15;;;;;;;14.27;9.93;;;13.00;99.90;;;;;;4930846;28;20042;-67
2022/11/13 11:26:46;;;;;;;11.55;9.65;;;13.10;99.90;;;;;;4927480;28;20044;-67
2022/11/13 11:29:25;;;;;;;12.80;10.10;;;13.00;99.90;;;;;;4925322;28;20058;-67
2022/11/13 11:32:00;;;;;;;15.82;9.73;;;13.00;99.90;;;;;;4925676;28;20047;-67
2022/11/13 11:34:37;;;;;;;15.57;10.02;;;13.00;99.90;;;;;;4931108;28;20113;-67
2022/11/13 11:37:23;;;;;;;16.05;10.70;;;13.10;99.90;;;;;;4924893;28;20639;-67
2022/11/13 11:40:19;;;;;;;13.50;10.20;;;13.10;99.90;;;;;;4913052;28;20081;-67
2022/11/13 11:43:00;;;;;;;12.00;9.45;;;13.10;99.90;;;;;;4904423;28;20055;-66
2022/11/13 11:45:31;;;;;;;13.52;10.43;;;13.20;99.90;;;;;;4940456;28;20067;-67
2022/11/13 11:47:58;;;;;;;13.45;9.55;;;13.20;99.90;;;;;;4923214;28;20087;-67
2022/11/13 11:50:48;;;;;;;13.32;10.00;;;13.20;99.90;;;;;;4925873;28;20047;-66
2022/11/13 11:53:46;;;;;;;11.07;9.30;;;13.20;99.90;;;;;;4924675;28;20053;-67
2022/11/13 11:56:40;;;;;;;12.50;9.80;;;13.20;99.90;;;;;;4899344;28;20158;-67
2022/11/13 11:59:14;;;;;;;13.50;9.57;;;13.30;99.90;;;;;;4913134;28;20059;-66
2022/11/13 12:01:52;;;;;;;11.80;9.45;;;13.40;99.90;;;;;;4937468;28;20051;-66
2022/11/13 12:04:37;;;;;;;11.95;9.02;;;13.40;99.90;;;;;;4928924;28;20514;-67
2022/11/13 12:07:31;;;;;;;10.57;8.95;;;13.50;99.90;;;;;;4945041;28;20055;-66
2022/11/13 12:10:14;;;;;;;11.45;9.48;;;13.60;99.90;;;;;;4927621;28;20051;-67
2022/11/13 12:12:47;;;;;;;11.30;8.50;;;13.70;99.90;;;;;;4927531;28;20052;-67
2022/11/13 12:15:22;;;;;;;11.38;8.98;;;13.90;99.90;;;;;;4917449;28;20106;-67
2022/11/13 12:18:14;;;;;;;11.45;8.65;;;14.00;99.90;;;;;;4933393;28;20061;-67
2022/11/13 12:20:48;;;;;;;11.40;9.00;;;14.10;99.90;;;;;;4877346;29;20495;-67
2022/11/13 12:23:25;;;;;;;10.43;9.10;;;14.30;99.90;;;;;;4876107;29;20058;-67
2022/11/13 12:26:02;;;;;;;10.55;8.80;;;14.50;99.90;;;;;;4907569;29;20131;-68
2022/11/13 12:28:40;;;;;;;9.98;7.97;;;14.70;99.90;;;;;;4901903;29;22759;-67
2022/11/13 12:31:16;;;;;;;9.60;8.13;;;14.90;99.90;;;;;;4882134;29;20123;-67
2022/11/13 12:34:00;;;;;;;11.18;8.18;;;15.10;99.90;;;;;;4894055;29;20055;-67
2022/11/13 12:36:26;;;;;;;10.15;7.63;;;15.20;99.90;;;;;;4897043;29;20051;-67
2022/11/13 12:39:05;;;;;;;11.63;8.55;;;15.20;99.90;;;;;;4891825;29;20054;-67
2022/11/13 12:41:37;;;;;;;9.52;8.15;;;15.30;99.90;;;;;;4893048;29;20063;-67
2022/11/13 12:44:27;;;;;;;9.77;8.43;;;15.50;99.90;;;;;;4881640;29;20087;-67
2022/11/13 12:46:55;;;;;;;9.18;7.53;;;15.60;99.90;;;;;;4892035;29;20100;-68
2022/11/13 12:49:21;;;;;;;9.82;8.32;;;15.70;99.90;;;;;;4900022;29;20474;-67